createdAt,value
2022-09-30T00:00:17.950Z,8.641968
2022-09-30T00:01:26.788Z,8.631897
2022-09-30T00:02:36.475Z,8.631897
2022-09-30T00:03:44.121Z,8.641968
2022-09-30T00:04:53.814Z,8.631897
2022-09-30T00:06:08.043Z,8.641968
2022-09-30T00:07:13.215Z,8.641968
2022-09-30T00:08:22.940Z,8.662109
2022-09-30T00:09:31.700Z,8.662109
2022-09-30T00:10:40.346Z,8.662109
2022-09-30T00:11:51.032Z,8.641968
2022-09-30T00:12:59.760Z,8.662109
2022-09-30T00:14:08.475Z,8.631897
2022-09-30T00:15:18.182Z,8.641968
2022-09-30T00:16:26.953Z,8.641968
2022-09-30T00:17:36.579Z,8.641968
2022-09-30T00:18:45.316Z,8.641968
2022-09-30T00:19:52.967Z,8.641968
2022-09-30T00:21:02.711Z,8.641968
2022-09-30T00:22:12.381Z,8.641968
2022-09-30T00:23:22.097Z,8.631897
2022-09-30T00:24:31.887Z,8.631897
2022-09-30T00:25:40.639Z,8.662109
2022-09-30T00:26:50.608Z,8.662109
2022-09-30T00:27:59.289Z,8.67218
2022-09-30T00:29:08.998Z,8.67218
2022-09-30T00:30:18.713Z,8.641968
2022-09-30T00:31:26.433Z,8.641968
2022-09-30T00:32:36.121Z,8.601685
2022-09-30T00:33:45.817Z,8.601685
2022-09-30T00:34:53.500Z,8.601685
2022-09-30T00:36:03.233Z,8.631897
2022-09-30T00:37:11.935Z,8.611755
2022-09-30T00:38:20.796Z,8.631897
2022-09-30T00:39:29.505Z,8.631897
2022-09-30T00:40:38.193Z,8.631897
2022-09-30T00:41:46.876Z,8.631897
2022-09-30T00:42:56.596Z,8.611755
2022-09-30T00:50:03.912Z,8.531189
2022-09-30T00:51:12.623Z,8.551331
2022-09-30T00:52:21.320Z,8.521118
2022-09-30T00:53:31.002Z,8.521118
2022-09-30T00:54:38.721Z,8.521118
2022-09-30T00:55:47.394Z,8.511047
2022-09-30T00:56:57.059Z,8.511047
2022-09-30T00:58:04.752Z,8.490906
2022-09-30T00:59:14.416Z,8.460693
2022-09-30T01:00:22.218Z,8.460693
2022-09-30T01:01:29.861Z,8.450623
2022-09-30T01:02:39.541Z,8.460693
2022-09-30T01:03:48.214Z,8.450623
2022-09-30T01:04:57.880Z,8.450623
2022-09-30T01:06:07.568Z,8.450623
2022-09-30T01:07:16.235Z,8.450623
2022-09-30T01:08:25.951Z,8.440552
2022-09-30T01:09:35.701Z,8.410339
2022-09-30T01:10:44.284Z,8.410339
2022-09-30T01:11:54.066Z,8.410339
2022-09-30T01:13:02.743Z,8.440552
2022-09-30T01:14:11.406Z,8.42041
2022-09-30T01:15:21.093Z,8.410339
2022-09-30T01:16:28.800Z,8.440552
2022-09-30T01:17:38.490Z,8.42041
2022-09-30T01:18:47.155Z,8.440552
2022-09-30T01:19:55.825Z,8.42041
2022-09-30T01:21:05.506Z,8.440552
2022-09-30T01:22:14.181Z,8.410339
2022-09-30T01:23:23.860Z,8.410339
2022-09-30T01:24:33.567Z,8.42041
2022-09-30T01:25:42.219Z,8.42041
2022-09-30T01:26:51.907Z,8.42041
2022-09-30T01:28:00.597Z,8.440552
2022-09-30T01:29:08.286Z,8.440552
2022-09-30T01:30:17.956Z,8.440552
2022-09-30T01:31:26.727Z,8.440552
2022-09-30T01:32:36.291Z,8.450623
2022-09-30T01:33:44.956Z,8.440552
2022-09-30T01:34:53.652Z,8.460693
2022-09-30T01:36:03.355Z,8.460693
2022-09-30T01:37:11.020Z,8.460693
2022-09-30T01:38:19.689Z,8.480835
2022-09-30T01:39:29.379Z,8.480835
2022-09-30T01:40:37.160Z,8.460693
2022-09-30T01:41:46.805Z,8.460693
2022-09-30T01:42:56.477Z,8.440552
2022-09-30T01:44:06.158Z,8.42041
2022-09-30T01:45:15.817Z,8.410339
2022-09-30T01:46:25.573Z,8.42041
2022-09-30T01:47:33.170Z,8.410339
2022-09-30T01:48:42.860Z,8.380127
2022-09-30T01:49:51.531Z,8.410339
2022-09-30T01:51:01.197Z,8.410339
2022-09-30T01:52:10.891Z,8.410339
2022-09-30T01:53:19.556Z,8.410339
2022-09-30T01:54:29.224Z,8.42041
2022-09-30T01:55:37.918Z,8.42041
2022-09-30T01:56:47.627Z,8.42041
2022-09-30T01:57:57.301Z,8.450623
2022-09-30T01:59:05.971Z,8.440552
2022-09-30T02:00:14.635Z,8.450623
2022-09-30T02:01:21.371Z,8.460693
2022-09-30T02:02:30.002Z,8.480835
2022-09-30T02:03:39.659Z,8.511047
2022-09-30T02:04:47.320Z,8.511047
2022-09-30T02:05:57.017Z,8.511047
2022-09-30T02:07:06.707Z,8.511047
2022-09-30T02:08:14.364Z,8.490906
2022-09-30T02:09:24.249Z,8.480835
2022-09-30T02:10:33.748Z,8.480835
2022-09-30T02:11:43.430Z,8.480835
2022-09-30T02:12:53.177Z,8.460693
2022-09-30T02:14:00.800Z,8.460693
2022-09-30T02:15:10.498Z,8.460693
2022-09-30T02:16:20.382Z,8.480835
2022-09-30T02:17:27.841Z,8.460693
2022-09-30T02:18:37.522Z,8.480835
2022-09-30T02:19:45.200Z,8.460693
2022-09-30T02:20:54.015Z,8.460693
2022-09-30T02:22:03.674Z,8.450623
2022-09-30T02:23:11.350Z,8.440552
2022-09-30T02:24:21.014Z,8.410339
2022-09-30T02:25:30.680Z,8.380127
2022-09-30T02:26:38.365Z,8.380127
2022-09-30T02:27:48.038Z,8.370056
2022-09-30T02:28:56.731Z,8.359985
2022-09-30T02:30:05.375Z,8.339844
2022-09-30T02:31:15.085Z,8.309631
2022-09-30T02:32:23.729Z,8.309631
2022-09-30T02:33:33.399Z,8.299561
2022-09-30T02:34:42.065Z,8.309631
2022-09-30T02:35:49.743Z,8.279419
2022-09-30T02:36:59.421Z,8.299561
2022-09-30T02:38:09.134Z,8.279419
2022-09-30T02:39:18.832Z,8.269348
2022-09-30T02:40:28.503Z,8.269348
2022-09-30T02:41:37.174Z,8.269348
2022-09-30T02:42:46.838Z,8.269348
2022-09-30T02:43:55.545Z,8.269348
2022-09-30T02:45:03.254Z,8.269348
2022-09-30T02:46:12.964Z,8.269348
2022-09-30T02:47:20.588Z,8.269348
2022-09-30T02:48:29.298Z,8.269348
2022-09-30T02:49:38.995Z,8.269348
2022-09-30T02:50:46.661Z,8.279419
2022-09-30T02:51:56.330Z,8.269348
2022-09-30T02:53:06.000Z,8.259277
2022-09-30T02:54:14.674Z,8.259277
2022-09-30T02:55:24.397Z,8.269348
2022-09-30T02:56:32.048Z,8.229065
2022-09-30T02:57:41.748Z,8.229065
2022-09-30T02:58:51.427Z,8.229065
2022-09-30T03:00:03.357Z,8.229065
2022-09-30T03:01:10.878Z,8.198853
2022-09-30T03:02:20.590Z,8.229065
2022-09-30T03:03:29.196Z,8.229065
2022-09-30T03:04:38.909Z,8.239136
2022-09-30T03:05:47.561Z,8.239136
2022-09-30T03:06:56.276Z,8.259277
2022-09-30T03:08:05.995Z,8.239136
2022-09-30T03:09:13.889Z,8.259277
2022-09-30T03:10:23.434Z,8.239136
2022-09-30T03:11:33.109Z,8.259277
2022-09-30T03:12:40.802Z,8.239136
2022-09-30T03:13:50.490Z,8.239136
2022-09-30T03:14:59.181Z,8.229065
2022-09-30T03:16:11.941Z,8.188782
2022-09-30T03:17:18.534Z,8.188782
2022-09-30T03:18:26.238Z,8.158569
2022-09-30T03:19:35.917Z,8.128357
2022-09-30T03:20:44.589Z,8.098145
2022-09-30T03:21:53.266Z,8.078003
2022-09-30T03:23:02.927Z,8.047791
2022-09-30T03:24:10.833Z,8.047791
2022-09-30T03:25:20.521Z,8.027649
2022-09-30T03:26:30.189Z,8.007507
2022-09-30T03:27:37.849Z,8.027649
2022-09-30T03:28:47.558Z,8.027649
2022-09-30T03:29:56.255Z,8.047791
2022-09-30T03:31:04.978Z,8.057861
2022-09-30T03:32:14.599Z,8.057861
2022-09-30T03:33:22.294Z,8.078003
2022-09-30T03:34:30.923Z,8.057861
2022-09-30T03:35:40.609Z,8.057861
2022-09-30T03:36:49.264Z,8.057861
2022-09-30T03:37:58.936Z,8.057861
2022-09-30T03:39:08.592Z,8.047791
2022-09-30T03:40:16.268Z,8.047791
2022-09-30T03:41:25.971Z,8.047791
2022-09-30T03:42:33.658Z,8.007507
2022-09-30T03:43:43.355Z,8.027649
2022-09-30T03:44:53.039Z,8.007507
2022-09-30T03:46:01.719Z,8.007507
2022-09-30T03:47:11.426Z,8.047791
2022-09-30T03:48:21.126Z,8.027649
2022-09-30T03:49:29.824Z,8.027649
2022-09-30T03:50:39.467Z,8.047791
2022-09-30T03:51:48.298Z,8.047791
2022-09-30T03:52:55.818Z,8.047791
2022-09-30T03:54:05.497Z,8.057861
2022-09-30T03:55:14.181Z,8.057861
2022-09-30T03:56:23.873Z,8.057861
2022-09-30T03:57:31.532Z,8.078003
2022-09-30T03:58:41.251Z,8.078003
2022-09-30T03:59:50.902Z,8.088074
2022-09-30T04:00:57.575Z,8.078003
2022-09-30T04:02:07.293Z,8.057861
2022-09-30T04:03:15.906Z,8.057861
2022-09-30T04:04:24.604Z,8.078003
2022-09-30T04:05:34.270Z,8.057861
2022-09-30T04:06:41.956Z,8.057861
2022-09-30T04:07:51.645Z,8.057861
2022-09-30T04:09:00.395Z,8.057861
2022-09-30T04:10:10.020Z,8.057861
2022-09-30T04:11:19.711Z,8.078003
2022-09-30T04:12:27.374Z,8.057861
2022-09-30T04:13:36.036Z,8.088074
2022-09-30T04:14:45.717Z,8.088074
2022-09-30T04:15:53.452Z,8.088074
2022-09-30T04:17:03.119Z,8.088074
2022-09-30T04:18:11.841Z,8.088074
2022-09-30T04:19:20.612Z,8.088074
2022-09-30T04:20:30.242Z,8.078003
2022-09-30T04:21:37.950Z,8.057861
2022-09-30T04:22:46.586Z,8.078003
2022-09-30T04:23:56.283Z,8.047791
2022-09-30T04:25:04.957Z,8.047791
2022-09-30T04:26:14.653Z,8.047791
2022-09-30T04:27:23.405Z,8.047791
2022-09-30T04:28:31.089Z,8.027649
2022-09-30T04:29:40.788Z,8.047791
2022-09-30T04:30:50.489Z,8.027649
2022-09-30T04:31:59.228Z,8.047791
2022-09-30T04:33:08.891Z,8.047791
2022-09-30T04:34:17.576Z,8.047791
2022-09-30T04:35:27.253Z,8.027649
2022-09-30T04:36:35.934Z,8.027649
2022-09-30T04:37:43.633Z,8.027649
2022-09-30T04:38:53.319Z,8.027649
2022-09-30T04:40:00.993Z,8.007507
2022-09-30T04:41:09.662Z,8.007507
2022-09-30T04:42:19.334Z,7.997437
2022-09-30T04:43:27.014Z,7.997437
2022-09-30T04:44:36.714Z,7.977295
2022-09-30T04:45:45.447Z,7.977295
2022-09-30T04:46:53.069Z,7.977295
2022-09-30T04:48:01.830Z,7.977295
2022-09-30T04:49:10.483Z,7.967224
2022-09-30T04:50:19.202Z,7.967224
2022-09-30T04:51:28.893Z,7.967224
2022-09-30T04:52:37.549Z,7.947083
2022-09-30T04:53:47.283Z,7.967224
2022-09-30T04:54:56.959Z,7.967224
2022-09-30T04:56:06.681Z,7.967224
2022-09-30T04:57:15.375Z,7.977295
2022-09-30T04:58:24.074Z,7.997437
2022-09-30T04:59:33.757Z,8.158569
2022-09-30T05:00:43.554Z,8.269348
2022-09-30T05:01:51.242Z,8.339844
2022-09-30T05:03:00.921Z,8.380127
2022-09-30T05:04:10.600Z,8.450623
2022-09-30T05:05:19.295Z,8.460693
2022-09-30T05:06:28.985Z,8.490906
2022-09-30T05:07:37.701Z,8.490906
2022-09-30T05:08:47.372Z,8.460693
2022-09-30T05:09:57.095Z,8.440552
2022-09-30T05:11:04.710Z,8.410339
2022-09-30T05:12:13.387Z,8.370056
2022-09-30T05:13:23.077Z,8.339844
2022-09-30T05:14:31.771Z,8.329773
2022-09-30T05:15:41.474Z,8.279419
2022-09-30T05:16:50.287Z,8.269348
2022-09-30T05:17:59.991Z,8.259277
2022-09-30T05:19:09.766Z,8.229065
2022-09-30T05:20:20.888Z,8.198853
2022-09-30T05:21:27.111Z,8.178711
2022-09-30T05:22:35.882Z,8.148499
2022-09-30T05:23:45.597Z,8.118286
2022-09-30T05:24:55.388Z,8.118286
2022-09-30T05:26:08.545Z,8.088074
2022-09-30T05:27:14.726Z,8.098145
2022-09-30T05:28:24.411Z,8.078003
2022-09-30T05:29:34.093Z,8.088074
2022-09-30T05:30:44.071Z,8.098145
2022-09-30T05:31:53.752Z,8.098145
2022-09-30T05:33:02.349Z,8.078003
2022-09-30T05:34:12.056Z,8.118286
2022-09-30T05:35:19.730Z,8.118286
2022-09-30T05:36:28.460Z,8.118286
2022-09-30T05:37:38.171Z,8.118286
2022-09-30T05:38:47.848Z,8.128357
2022-09-30T05:39:57.525Z,8.148499
2022-09-30T05:41:06.223Z,8.158569
2022-09-30T05:42:14.251Z,8.128357
2022-09-30T05:43:23.620Z,8.128357
2022-09-30T05:44:31.286Z,8.148499
2022-09-30T05:45:40.012Z,8.178711
2022-09-30T05:46:49.761Z,8.229065
2022-09-30T05:47:58.454Z,8.198853
2022-09-30T05:49:08.135Z,8.178711
2022-09-30T05:50:16.881Z,8.148499
2022-09-30T05:51:24.784Z,8.148499
2022-09-30T05:52:34.479Z,8.158569
2022-09-30T05:53:44.206Z,8.158569
2022-09-30T05:54:53.952Z,8.188782
2022-09-30T05:56:02.622Z,8.229065
2022-09-30T05:57:11.302Z,8.259277
2022-09-30T05:58:21.012Z,8.269348
2022-09-30T05:59:28.726Z,8.299561
2022-09-30T06:00:38.395Z,8.299561
2022-09-30T06:01:47.176Z,8.309631
2022-09-30T06:02:55.757Z,8.299561
2022-09-30T06:04:05.415Z,8.309631
2022-09-30T06:05:14.119Z,8.309631
2022-09-30T06:06:23.826Z,8.329773
2022-09-30T06:07:34.503Z,8.359985
2022-09-30T06:08:43.165Z,8.380127
2022-09-30T06:09:52.863Z,8.440552
2022-09-30T06:11:01.573Z,8.480835
2022-09-30T06:12:10.253Z,8.521118
2022-09-30T06:13:20.944Z,8.561401
2022-09-30T06:14:29.642Z,8.601685
2022-09-30T06:15:38.316Z,8.561401
2022-09-30T06:16:48.047Z,8.531189
2022-09-30T06:17:56.709Z,8.531189
2022-09-30T06:19:06.444Z,8.551331
2022-09-30T06:20:15.116Z,8.561401
2022-09-30T06:21:24.860Z,8.601685
2022-09-30T06:22:34.581Z,8.631897
2022-09-30T06:23:43.253Z,8.662109
2022-09-30T06:24:55.075Z,8.662109
2022-09-30T06:26:01.608Z,8.67218
2022-09-30T06:27:09.264Z,8.67218
2022-09-30T06:28:18.968Z,8.692322
2022-09-30T06:29:28.640Z,8.692322
2022-09-30T06:30:36.314Z,8.692322
2022-09-30T06:31:46.241Z,8.712463
2022-09-30T06:32:53.824Z,8.762817
2022-09-30T06:34:03.652Z,8.813171
2022-09-30T06:35:13.339Z,8.843384
2022-09-30T06:36:21.006Z,8.883667
2022-09-30T06:37:30.662Z,8.913879
2022-09-30T06:38:39.344Z,8.913879
2022-09-30T06:39:49.054Z,8.873596
2022-09-30T06:40:58.727Z,8.813171
2022-09-30T06:42:07.402Z,8.782959
2022-09-30T06:43:16.079Z,8.813171
2022-09-30T06:44:25.755Z,8.853455
2022-09-30T06:45:35.509Z,8.944092
2022-09-30T06:46:53.440Z,8.994446
2022-09-30T06:47:59.961Z,9.064941
2022-09-30T06:49:12.425Z,9.105225
2022-09-30T06:50:22.864Z,9.155579
2022-09-30T06:51:24.775Z,9.17572
2022-09-30T06:52:34.471Z,9.226074
2022-09-30T06:53:44.156Z,9.316711
2022-09-30T06:54:53.817Z,9.437561
2022-09-30T06:56:02.480Z,9.54834
2022-09-30T06:57:12.194Z,9.649048
2022-09-30T06:58:19.878Z,9.689331
2022-09-30T06:59:29.539Z,9.790039
2022-09-30T07:00:38.253Z,9.860535
2022-09-30T07:01:46.987Z,9.951172
2022-09-30T07:02:56.674Z,10.021667
2022-09-30T07:04:06.333Z,10.092163
2022-09-30T07:05:16.055Z,10.172729
2022-09-30T07:06:24.784Z,10.233154
2022-09-30T07:07:33.452Z,10.192871
2022-09-30T07:08:43.164Z,10.233154
2022-09-30T07:09:50.882Z,10.283508
2022-09-30T07:11:00.468Z,10.333862
2022-09-30T07:12:10.157Z,10.384216
2022-09-30T07:13:17.840Z,10.444641
2022-09-30T07:14:28.559Z,10.494995
2022-09-30T07:15:38.272Z,10.625916
2022-09-30T07:16:48.013Z,10.68634
2022-09-30T07:17:57.690Z,10.585632
2022-09-30T07:19:05.392Z,10.666199
2022-09-30T07:20:14.066Z,10.67627
2022-09-30T07:21:23.749Z,10.68634
2022-09-30T07:22:31.463Z,10.666199
2022-09-30T07:23:41.153Z,10.666199
2022-09-30T07:24:49.827Z,10.716553
2022-09-30T07:25:58.537Z,10.746765
2022-09-30T07:27:08.211Z,10.837402
2022-09-30T07:28:15.895Z,10.968323
2022-09-30T07:29:24.749Z,11.069031
2022-09-30T07:30:35.282Z,11.119385
2022-09-30T07:31:45.014Z,11.169739
2022-09-30T07:32:54.717Z,11.250305
2022-09-30T07:34:04.391Z,11.330872
2022-09-30T07:35:13.126Z,11.471863
2022-09-30T07:36:22.861Z,11.522217
2022-09-30T07:37:32.778Z,11.552429
2022-09-30T07:38:41.457Z,11.632996
2022-09-30T07:39:51.178Z,11.733704
2022-09-30T07:40:59.883Z,11.874695
2022-09-30T07:42:09.585Z,11.985474
2022-09-30T07:43:19.290Z,12.06604
2022-09-30T07:44:28.005Z,12.176819
2022-09-30T07:45:37.780Z,12.31781
2022-09-30T07:46:45.497Z,12.499084
2022-09-30T07:47:55.229Z,12.650146
2022-09-30T07:49:04.941Z,12.760925
2022-09-30T07:50:13.679Z,12.972412
2022-09-30T07:51:23.437Z,13.123474
2022-09-30T07:52:31.134Z,13.19397
2022-09-30T07:53:40.866Z,13.234253
2022-09-30T07:54:50.953Z,13.254395
2022-09-30T07:55:59.330Z,13.365173
2022-09-30T07:57:10.403Z,13.385315
2022-09-30T07:58:18.736Z,13.314819
2022-09-30T07:59:28.481Z,13.204041
2022-09-30T08:00:42.345Z,13.183899
2022-09-30T08:01:48.219Z,13.234253
2022-09-30T08:02:56.642Z,13.133545
2022-09-30T08:04:05.365Z,13.042908
2022-09-30T08:05:13.041Z,12.861633
2022-09-30T08:06:22.744Z,12.781067
2022-09-30T08:07:31.454Z,12.750854
2022-09-30T08:08:40.157Z,12.791138
2022-09-30T08:09:49.972Z,12.801208
2022-09-30T08:10:57.546Z,12.831421
2022-09-30T08:12:07.239Z,12.9422
2022-09-30T08:13:16.912Z,13.093262
2022-09-30T08:14:25.708Z,13.19397
2022-09-30T08:15:35.317Z,13.254395
2022-09-30T08:16:43.044Z,13.365173
2022-09-30T08:17:52.710Z,13.334961
2022-09-30T08:19:02.441Z,13.345032
2022-09-30T08:20:13.318Z,13.556519
2022-09-30T08:21:19.751Z,13.858643
2022-09-30T08:22:28.439Z,14.120483
2022-09-30T08:23:36.190Z,14.20105
2022-09-30T08:24:45.865Z,14.321899
2022-09-30T08:25:53.612Z,14.472961
2022-09-30T08:27:02.375Z,14.634094
2022-09-30T08:28:12.002Z,14.664307
2022-09-30T08:30:30.423Z,14.694519
2022-09-30T08:31:40.163Z,14.734802
2022-09-30T08:32:47.805Z,14.654236
2022-09-30T08:33:57.504Z,14.593811
2022-09-30T08:35:07.247Z,14.321899
2022-09-30T08:36:16.938Z,14.180908
2022-09-30T08:37:26.665Z,14.120483
2022-09-30T08:38:34.353Z,14.110413
2022-09-30T08:39:44.064Z,14.070129
2022-09-30T08:40:54.010Z,14.049988
2022-09-30T08:42:09.158Z,13.929138
2022-09-30T08:43:13.356Z,13.858643
2022-09-30T08:44:21.102Z,13.747864
2022-09-30T08:45:29.831Z,13.717651
2022-09-30T08:46:39.542Z,13.717651
2022-09-30T08:47:47.248Z,13.717651
2022-09-30T08:48:58.650Z,13.737793
2022-09-30T08:50:06.659Z,13.586731
2022-09-30T08:51:15.369Z,13.496094
2022-09-30T08:52:30.812Z,13.345032
2022-09-30T08:53:35.804Z,13.304749
2022-09-30T08:54:44.490Z,13.455811
2022-09-30T08:55:54.237Z,13.516235
2022-09-30T08:57:01.892Z,13.526306
2022-09-30T08:58:11.626Z,13.677368
2022-09-30T08:59:20.346Z,13.858643
2022-09-30T09:00:30.089Z,13.969421
2022-09-30T09:01:39.866Z,14.100342
2022-09-30T09:02:48.532Z,14.140625
2022-09-30T09:03:57.189Z,14.150696
2022-09-30T09:05:06.879Z,14.180908
2022-09-30T09:06:14.575Z,14.110413
2022-09-30T09:07:24.252Z,14.100342
2022-09-30T09:08:32.973Z,14.120483
2022-09-30T09:09:40.685Z,14.100342
2022-09-30T09:10:50.378Z,14.049988
2022-09-30T09:11:59.059Z,13.929138
2022-09-30T09:13:08.753Z,13.768005
2022-09-30T09:14:18.426Z,13.627014
2022-09-30T09:15:26.127Z,13.586731
2022-09-30T09:16:35.865Z,13.536377
2022-09-30T09:17:58.526Z,13.496094
2022-09-30T09:18:56.179Z,13.516235
2022-09-30T09:20:05.916Z,13.526306
2022-09-30T09:21:14.633Z,13.496094
2022-09-30T09:22:24.976Z,13.516235
2022-09-30T09:23:34.043Z,13.536377
2022-09-30T09:24:42.737Z,13.455811
2022-09-30T09:25:52.459Z,13.455811
2022-09-30T09:27:01.181Z,13.486023
2022-09-30T09:28:09.963Z,13.375244
2022-09-30T09:29:19.535Z,13.334961
2022-09-30T09:30:29.222Z,13.19397
2022-09-30T09:31:36.937Z,13.224182
2022-09-30T09:32:46.594Z,13.234253
2022-09-30T09:33:54.259Z,13.304749
2022-09-30T09:35:03.937Z,13.334961
2022-09-30T09:36:13.667Z,13.405457
2022-09-30T09:37:23.331Z,13.465881
2022-09-30T09:38:33.042Z,13.536377
2022-09-30T09:39:41.715Z,13.526306
2022-09-30T09:40:51.383Z,13.304749
2022-09-30T09:42:01.059Z,13.153687
2022-09-30T09:43:09.739Z,12.982483
2022-09-30T09:44:19.548Z,12.851562
2022-09-30T09:45:29.325Z,12.82135
2022-09-30T09:46:37.875Z,12.791138
2022-09-30T09:47:47.567Z,12.801208
2022-09-30T09:48:57.239Z,12.851562
2022-09-30T09:50:07.110Z,12.901917
2022-09-30T09:51:15.768Z,12.982483
2022-09-30T09:52:25.436Z,13.113403
2022-09-30T09:53:35.132Z,13.153687
2022-09-30T09:54:42.808Z,13.19397
2022-09-30T09:55:52.518Z,13.224182
2022-09-30T09:57:01.191Z,13.274536
2022-09-30T09:58:08.891Z,13.304749
2022-09-30T09:59:19.696Z,13.334961
2022-09-30T10:00:27.329Z,13.365173
2022-09-30T10:01:37.018Z,13.435669
2022-09-30T10:02:46.669Z,13.19397
2022-09-30T10:03:55.341Z,13.083191
2022-09-30T10:05:05.034Z,13.052979
2022-09-30T10:06:12.702Z,13.113403
2022-09-30T10:07:20.392Z,13.133545
2022-09-30T10:08:30.066Z,13.234253
2022-09-30T10:09:37.733Z,13.304749
2022-09-30T10:10:47.428Z,13.375244
2022-09-30T10:11:57.131Z,13.415527
2022-09-30T10:13:05.837Z,13.496094
2022-09-30T10:14:15.547Z,13.616943
2022-09-30T10:15:24.163Z,13.69751
2022-09-30T10:16:32.871Z,13.69751
2022-09-30T10:17:42.557Z,13.707581
2022-09-30T10:18:50.248Z,13.848572
2022-09-30T10:19:58.903Z,14.039917
2022-09-30T10:21:08.595Z,14.231262
2022-09-30T10:22:17.246Z,14.432678
2022-09-30T10:23:26.953Z,14.45282
2022-09-30T10:24:35.643Z,14.432678
2022-09-30T10:25:43.330Z,14.45282
2022-09-30T10:26:53.018Z,14.33197
2022-09-30T10:28:01.754Z,14.291687
2022-09-30T10:29:11.350Z,14.281616
2022-09-30T10:30:21.030Z,14.352112
2022-09-30T10:31:28.748Z,14.442749
2022-09-30T10:32:38.388Z,14.543457
2022-09-30T10:33:48.027Z,14.634094
2022-09-30T10:34:57.696Z,14.724731
2022-09-30T10:36:07.386Z,14.775085
2022-09-30T10:37:15.057Z,14.815369
2022-09-30T10:38:24.719Z,14.875793
2022-09-30T10:39:34.418Z,14.885864
2022-09-30T10:40:43.102Z,14.906006
2022-09-30T10:41:52.816Z,14.95636
2022-09-30T10:43:02.491Z,14.966431
2022-09-30T10:44:10.127Z,14.966431
2022-09-30T10:45:19.803Z,14.996643
2022-09-30T10:46:28.521Z,14.986572
2022-09-30T10:47:37.561Z,14.95636
2022-09-30T10:48:47.079Z,14.916077
2022-09-30T10:49:54.774Z,14.845581
2022-09-30T10:51:04.433Z,14.805298
2022-09-30T10:52:13.177Z,14.83551
2022-09-30T10:53:20.820Z,14.805298
2022-09-30T10:54:30.486Z,14.775085
2022-09-30T10:55:38.148Z,14.775085
2022-09-30T10:56:46.854Z,14.785156
2022-09-30T10:57:56.515Z,14.70459
2022-09-30T10:59:04.192Z,14.734802
2022-09-30T11:00:13.931Z,14.805298
2022-09-30T11:01:22.612Z,14.775085
2022-09-30T11:02:31.237Z,14.70459
2022-09-30T11:03:40.966Z,14.664307
2022-09-30T11:04:50.658Z,14.603882
2022-09-30T11:06:00.248Z,14.593811
2022-09-30T11:07:09.915Z,14.634094
2022-09-30T11:08:17.583Z,14.634094
2022-09-30T11:09:27.250Z,14.352112
2022-09-30T11:10:36.974Z,14.261475
2022-09-30T11:11:45.728Z,14.281616
2022-09-30T11:12:55.333Z,14.231262
2022-09-30T11:14:04.018Z,14.281616
2022-09-30T11:15:12.674Z,14.321899
2022-09-30T11:16:22.420Z,14.362183
2022-09-30T11:17:30.031Z,14.372253
2022-09-30T11:18:39.698Z,14.402466
2022-09-30T11:19:48.376Z,14.402466
2022-09-30T11:20:57.081Z,14.281616
2022-09-30T11:22:06.791Z,14.251404
2022-09-30T11:23:15.448Z,14.231262
2022-09-30T11:24:24.101Z,14.251404
2022-09-30T11:25:33.794Z,14.231262
2022-09-30T11:26:41.471Z,14.261475
2022-09-30T11:27:51.219Z,14.221191
2022-09-30T11:28:59.876Z,14.180908
2022-09-30T11:30:08.529Z,14.110413
2022-09-30T11:31:18.237Z,14.110413
2022-09-30T11:32:25.877Z,13.999634
2022-09-30T11:33:35.561Z,13.888855
2022-09-30T11:34:45.265Z,13.808289
2022-09-30T11:35:52.965Z,13.717651
2022-09-30T11:37:02.737Z,13.717651
2022-09-30T11:38:12.318Z,13.717651
2022-09-30T11:39:22.022Z,13.747864
2022-09-30T11:40:31.690Z,13.788147
2022-09-30T11:41:39.364Z,13.82843
2022-09-30T11:42:47.028Z,13.82843
2022-09-30T11:43:56.748Z,13.778076
2022-09-30T11:45:06.411Z,13.788147
2022-09-30T11:46:16.130Z,13.808289
2022-09-30T11:47:23.767Z,13.82843
2022-09-30T11:48:33.442Z,13.858643
2022-09-30T11:49:43.136Z,13.868713
2022-09-30T11:50:51.847Z,13.888855
2022-09-30T11:52:01.534Z,13.94928
2022-09-30T11:53:10.261Z,13.94928
2022-09-30T11:54:19.928Z,13.989563
2022-09-30T11:55:29.611Z,14.049988
2022-09-30T11:56:37.307Z,14.0802
2022-09-30T11:57:47.000Z,14.140625
2022-09-30T11:58:56.679Z,14.20105
2022-09-30T12:00:05.369Z,14.261475
2022-09-30T12:01:15.049Z,14.231262
2022-09-30T12:02:23.756Z,14.20105
2022-09-30T12:03:32.430Z,14.170837
2022-09-30T12:04:42.121Z,14.20105
2022-09-30T12:05:50.789Z,14.301758
2022-09-30T12:07:00.449Z,14.362183
2022-09-30T12:08:10.151Z,14.45282
2022-09-30T12:09:18.849Z,14.543457
2022-09-30T12:10:28.479Z,14.513245
2022-09-30T12:11:37.161Z,14.513245
2022-09-30T12:12:46.823Z,14.553528
2022-09-30T12:13:56.525Z,14.593811
2022-09-30T12:15:05.202Z,14.624023
2022-09-30T12:16:14.896Z,14.603882
2022-09-30T12:17:23.550Z,14.624023
2022-09-30T12:18:31.219Z,14.664307
2022-09-30T12:19:40.911Z,14.765015
2022-09-30T12:20:49.602Z,14.845581
2022-09-30T12:21:59.339Z,14.936218
2022-09-30T12:23:09.013Z,14.966431
2022-09-30T12:24:17.721Z,15.026855
2022-09-30T12:25:26.402Z,15.026855
2022-09-30T12:26:37.060Z,15.057068
2022-09-30T12:27:45.790Z,15.057068
2022-09-30T12:28:56.504Z,15.067139
2022-09-30T12:30:05.078Z,15.036926
2022-09-30T12:31:14.779Z,15.026855
2022-09-30T12:32:24.456Z,14.885864
2022-09-30T12:33:32.129Z,14.765015
2022-09-30T12:34:41.824Z,14.593811
2022-09-30T12:35:51.511Z,14.543457
2022-09-30T12:36:59.261Z,14.513245
2022-09-30T12:38:08.938Z,14.513245
2022-09-30T12:39:17.683Z,14.533386
2022-09-30T12:40:26.379Z,14.593811
2022-09-30T12:41:36.080Z,14.624023
2022-09-30T12:42:44.768Z,14.634094
2022-09-30T12:43:54.433Z,14.634094
2022-09-30T12:45:04.122Z,14.603882
2022-09-30T12:46:12.233Z,14.442749
2022-09-30T12:47:21.949Z,14.432678
2022-09-30T12:48:29.758Z,14.472961
2022-09-30T12:49:38.436Z,14.472961
2022-09-30T12:50:48.128Z,14.513245
2022-09-30T12:51:56.797Z,14.603882
2022-09-30T12:53:06.472Z,14.724731
2022-09-30T12:54:15.249Z,14.845581
2022-09-30T12:55:23.904Z,14.966431
2022-09-30T12:56:33.650Z,15.097351
2022-09-30T12:57:41.284Z,15.187988
2022-09-30T12:58:50.923Z,15.238342
2022-09-30T12:59:59.688Z,15.187988
2022-09-30T13:01:08.418Z,15.177917
2022-09-30T13:02:18.126Z,14.916077
2022-09-30T13:03:26.734Z,14.875793
2022-09-30T13:04:35.419Z,14.875793
2022-09-30T13:05:45.151Z,14.765015
2022-09-30T13:06:53.830Z,14.734802
2022-09-30T13:08:02.538Z,14.734802
2022-09-30T13:09:12.230Z,14.724731
2022-09-30T13:10:19.889Z,14.694519
2022-09-30T13:11:29.593Z,14.684448
2022-09-30T13:12:38.274Z,14.694519
2022-09-30T13:13:47.058Z,14.70459
2022-09-30T13:14:56.680Z,14.775085
2022-09-30T13:16:04.398Z,14.765015
2022-09-30T13:17:13.061Z,14.734802
2022-09-30T13:18:22.753Z,14.775085
2022-09-30T13:19:30.424Z,14.805298
2022-09-30T13:20:40.102Z,14.83551
2022-09-30T13:21:52.042Z,14.805298
2022-09-30T13:22:56.464Z,14.734802
2022-09-30T13:24:06.189Z,14.70459
2022-09-30T13:25:14.877Z,14.58374
2022-09-30T13:26:24.558Z,14.372253
2022-09-30T13:27:34.223Z,14.432678
2022-09-30T13:28:41.906Z,14.684448